Suwannee River — WCZ7163 — position and weather

sailwx.info

Track history (hours):
 
Tides and Currents Weather Stations Pressure Air Temp Water Temp Dewpoint Dewpoint Depression Visibility Wind Speed Wind Dir Waves Ship Positions

Suwannee River

Owner: Seabulk Towing, Inc., Tampa, FL. More information available from US FCC via Universal Licensing System and Coast Guard Vessel Documentation Center.

Last reported at 2018-Feb-23 14:30 UTC. Time now 2018-Feb-23 14:51 UTC.
Position N 27°55' W 082°27'.

Length 28 m.

Type: Tug. MMSI: 366943490.

Date/timePositionNaut miles runAvg speedWind from/ knotsBaromVisibWave heightAir tempDewpointWater temp
2018-Feb-23 14:30N 27°55' W 082°27'0 0.0
2018-Feb-23 14:00N 27°55' W 082°27'0 0.0
2018-Feb-23 13:30N 27°55' W 082°27'0 0.0
2018-Feb-23 13:00N 27°55' W 082°27'0 0.0
2018-Feb-23 12:29N 27°55' W 082°27'0 0.0
2018-Feb-23 12:00N 27°55' W 082°27'0 0.0
2018-Feb-23 11:30N 27°55' W 082°27'0 0.0
2018-Feb-23 11:00N 27°55' W 082°27'1 3.0
2018-Feb-23 10:30N 27°57' W 082°27'0 0.2
2018-Feb-23 10:00N 27°57' W 082°27'2 3.6
2018-Feb-23 09:30N 27°55' W 082°27'2 3.5
2018-Feb-23 08:59N 27°53' W 082°26'1 2.7
2018-Feb-23 08:30N 27°54' W 082°26'0 0.0
2018-Feb-23 08:00N 27°54' W 082°26'0 0.0
2018-Feb-23 07:30N 27°54' W 082°26'0 0.0
2018-Feb-23 07:00N 27°54' W 082°26'0 0.0
2018-Feb-23 06:30N 27°54' W 082°26'0 0.0
2018-Feb-23 06:00N 27°54' W 082°26'0 0.0
2018-Feb-23 05:30N 27°54' W 082°26'0 0.0
2018-Feb-23 05:00N 27°54' W 082°26'4 7.1
2018-Feb-23 04:30N 27°51' W 082°27'3 1.6
2018-Feb-23 02:44N 27°51' W 082°24'2 6.8
2018-Feb-23 02:30N 27°51' W 082°25'2 4.9
2018-Feb-23 02:00N 27°49' W 082°27'2 3.8
2018-Feb-23 01:25N 27°48' W 082°24'0 0.5
2018-Feb-23 00:57N 27°48' W 082°25'3 7.5
2018-Feb-23 00:30N 27°51' W 082°27'4 8.0
2018-Feb-23 00:00N 27°55' W 082°27'0 0.0
2018-Feb-22 23:30N 27°55' W 082°27'0 0.0
2018-Feb-22 23:00N 27°55' W 082°27'0 0.0
2018-Feb-22 22:30N 27°55' W 082°27'0 0.0
2018-Feb-22 22:00N 27°55' W 082°27'0 0.0
2018-Feb-22 21:30N 27°55' W 082°27'0 0.0
2018-Feb-22 21:00N 27°55' W 082°27'0 0.0
2018-Feb-22 20:30N 27°55' W 082°27'0 0.0
2018-Feb-22 20:00N 27°55' W 082°27'0 0.0
2018-Feb-22 19:30N 27°55' W 082°27'0 0.0
2018-Feb-22 19:00N 27°55' W 082°27'0 0.0
2018-Feb-22 18:30N 27°55' W 082°27'0 0.0
2018-Feb-22 18:00N 27°55' W 082°27'0 0.0
2018-Feb-22 17:30N 27°55' W 082°27'0 0.0
2018-Feb-22 17:00N 27°55' W 082°27'0 0.0
2018-Feb-22 16:30N 27°55' W 082°27'0 0.0
2018-Feb-22 16:00N 27°55' W 082°27'0 0.0
2018-Feb-22 15:30N 27°55' W 082°27'0 0.0
2018-Feb-22 15:00N 27°55' W 082°27'0 0.0
2018-Feb-22 14:30N 27°55' W 082°27'0 0.0
2018-Feb-22 14:00N 27°55' W 082°27'0 0.0
2018-Feb-22 13:30N 27°55' W 082°27'0 0.0
2018-Feb-22 13:00N 27°55' W 082°27'0 0.0
2018-Feb-22 12:30N 27°55' W 082°27'1 1.2
2018-Feb-22 12:00N 27°56' W 082°27'1 1.2
2018-Feb-22 11:30N 27°55' W 082°27'0 0.0
2018-Feb-22 11:00N 27°55' W 082°27'0 0.0
2018-Feb-22 10:30N 27°55' W 082°27'0 0.0
2018-Feb-22 10:00N 27°55' W 082°27'0 0.0
2018-Feb-22 09:30N 27°55' W 082°27'0 0.0
2018-Feb-22 09:00N 27°55' W 082°27'0 0.0
2018-Feb-22 08:30N 27°55' W 082°27'0 0.0
2018-Feb-22 08:00N 27°55' W 082°27'0 0.0
2018-Feb-22 07:30N 27°55' W 082°27'0 0.0
2018-Feb-22 07:00N 27°55' W 082°27'0 0.0
2018-Feb-22 06:29N 27°55' W 082°27'0 0.0
2018-Feb-22 05:56N 27°55' W 082°27'0 0.0
2018-Feb-22 05:30N 27°55' W 082°27'0 0.0
2018-Feb-22 04:59N 27°55' W 082°27'0 0.0
2018-Feb-22 04:30N 27°55' W 082°27'0 0.0
2018-Feb-22 04:00N 27°55' W 082°27'0 0.0
2018-Feb-22 03:30N 27°55' W 082°27'0 0.0
2018-Feb-22 03:00N 27°55' W 082°27'0 0.0
2018-Feb-22 02:30N 27°55' W 082°27'0 0.0
2018-Feb-22 02:00N 27°55' W 082°27'0 0.0
2018-Feb-22 01:30N 27°55' W 082°27'0 0.0
2018-Feb-22 01:00N 27°55' W 082°27'0 0.0
2018-Feb-22 00:27N 27°55' W 082°27'0 0.0
2018-Feb-22 00:00N 27°55' W 082°27'0 0.0
2018-Feb-21 23:30N 27°55' W 082°27'0 0.0
2018-Feb-21 23:00N 27°55' W 082°27'0 0.0
2018-Feb-21 22:30N 27°55' W 082°27'0 0.0
2018-Feb-21 22:00N 27°55' W 082°27'0 0.0
2018-Feb-21 21:30N 27°55' W 082°27'0 0.0
2018-Feb-21 20:59N 27°55' W 082°27'0 0.0
2018-Feb-21 20:29N 27°55' W 082°27'0 0.0
2018-Feb-21 20:00N 27°55' W 082°27'0 0.0
2018-Feb-21 19:30N 27°55' W 082°27'0 0.0
2018-Feb-21 18:59N 27°55' W 082°27'0 0.0
2018-Feb-21 18:30N 27°55' W 082°27'0 0.3
2018-Feb-21 18:00N 27°56' W 082°27'0 0.9
2018-Feb-21 17:30N 27°56' W 082°27'1 1.1
2018-Feb-21 17:00N 27°56' W 082°27'2 3.5
2018-Feb-21 16:30N 27°55' W 082°27'1 1.3
2018-Feb-21 16:00N 27°55' W 082°27'0 0.0
2018-Feb-21 15:30N 27°55' W 082°27'0 0.0
2018-Feb-21 15:00N 27°55' W 082°27'0 0.0
2018-Feb-21 14:30N 27°55' W 082°27'0 0.0
2018-Feb-21 14:00N 27°55' W 082°27'0 0.0
2018-Feb-21 13:29N 27°55' W 082°27'0 0.0
2018-Feb-21 12:58N 27°55' W 082°27'0 0.0
2018-Feb-21 12:30N 27°55' W 082°27'0 0.0
2018-Feb-21 12:00N 27°55' W 082°27'0 0.0
2018-Feb-21 11:30N 27°55' W 082°27'0 0.0
2018-Feb-21 11:00N 27°55' W 082°27'0 0.0
2018-Feb-21 10:30N 27°55' W 082°27'0 0.0
2018-Feb-21 10:00N 27°55' W 082°27'0 0.0
2018-Feb-21 09:30N 27°55' W 082°27'0 0.0
2018-Feb-21 09:00N 27°55' W 082°27'0 0.0
2018-Feb-21 08:30N 27°55' W 082°27'0 0.0
2018-Feb-21 08:00N 27°55' W 082°27'0 0.0
2018-Feb-21 07:30N 27°55' W 082°27'0 0.0
2018-Feb-21 06:58N 27°55' W 082°27'0 0.0
2018-Feb-21 06:30N 27°55' W 082°27'0 0.0
2018-Feb-21 06:00N 27°55' W 082°27'0 0.0
2018-Feb-21 05:30N 27°55' W 082°27'0 0.0
2018-Feb-21 05:00N 27°55' W 082°27'0 0.0
2018-Feb-21 04:30N 27°55' W 082°27'0 0.0
2018-Feb-21 04:00N 27°55' W 082°27'0 0.0
2018-Feb-21 03:30N 27°55' W 082°27'0 0.0
2018-Feb-21 03:00N 27°55' W 082°27'1 2.3
2018-Feb-21 02:30N 27°57' W 082°27'0 0.7
2018-Feb-21 02:00N 27°57' W 082°27'0 0.3
2018-Feb-21 01:30N 27°57' W 082°27'1 2.6
2018-Feb-21 01:00N 27°55' W 082°27'0 0.0
2018-Feb-21 00:30N 27°55' W 082°27'0 0.0
2018-Feb-21 00:00N 27°55' W 082°27'0 0.0
2018-Feb-20 23:30N 27°55' W 082°27'0 0.0
2018-Feb-20 23:00N 27°55' W 082°27'0 0.0
2018-Feb-20 22:30N 27°55' W 082°27'0 0.0
2018-Feb-20 22:00N 27°55' W 082°27'4 8.6
2018-Feb-20 21:30N 27°51' W 082°27'5 9.7
2018-Feb-20 21:00N 27°47' W 082°30'4 8.0
2018-Feb-20 20:30N 27°49' W 082°34'3 5.2
2018-Feb-20 20:00N 27°52' W 082°33'0 0.0
2018-Feb-20 19:30N 27°52' W 082°33'0 0.0
2018-Feb-20 19:00N 27°52' W 082°33'0 0.0
2018-Feb-20 18:28N 27°52' W 082°33'0 0.0
2018-Feb-20 18:00N 27°52' W 082°33'0 0.0
2018-Feb-20 17:30N 27°52' W 082°33'0 0.0
2018-Feb-20 17:00N 27°52' W 082°33'0 0.0
2018-Feb-20 16:30N 27°52' W 082°33'0 0.0
2018-Feb-20 16:00N 27°52' W 082°33'0 0.0
2018-Feb-20 15:27N 27°52' W 082°33'0 0.0
2018-Feb-20 15:00N 27°52' W 082°33'0 0.0
2018-Feb-20 14:28N 27°52' W 082°33'0 0.0
2018-Feb-20 14:00N 27°52' W 082°33'0 0.0
2018-Feb-20 13:30N 27°52' W 082°33'0 0.0
2018-Feb-20 13:00N 27°52' W 082°33'0 0.0
2018-Feb-20 12:30N 27°52' W 082°33'0 0.0
2018-Feb-20 12:00N 27°52' W 082°33'0 0.0
2018-Feb-20 11:30N 27°52' W 082°33'0 0.5
2018-Feb-20 11:00N 27°52' W 082°33'0 0.0
2018-Feb-20 10:30N 27°52' W 082°33'4 5.7
2018-Feb-20 09:45N 27°47' W 082°34'311.2
2018-Feb-20 09:30N 27°47' W 082°31'510.1
2018-Feb-20 09:00N 27°50' W 082°27'5 9.8
2018-Feb-20 08:30N 27°55' W 082°27'0 0.0
2018-Feb-20 08:00N 27°55' W 082°27'0 0.0
2018-Feb-20 07:30N 27°55' W 082°27'0 0.0
2018-Feb-20 07:00N 27°55' W 082°27'0 0.0
2018-Feb-20 06:30N 27°55' W 082°27'0 0.0
2018-Feb-20 06:00N 27°55' W 082°27'0 0.0
2018-Feb-20 05:30N 27°55' W 082°27'0 0.0
2018-Feb-20 05:00N 27°55' W 082°27'0 0.0
2018-Feb-20 04:30N 27°55' W 082°27'0 0.0
2018-Feb-20 04:00N 27°55' W 082°27'0 0.0
2018-Feb-20 03:30N 27°55' W 082°27'0 0.0
2018-Feb-20 03:00N 27°55' W 082°27'0 0.0
2018-Feb-20 02:30N 27°55' W 082°27'0 0.0
2018-Feb-20 02:00N 27°55' W 082°27'0 0.0
2018-Feb-20 01:30N 27°55' W 082°27'0 0.0
2018-Feb-20 01:00N 27°55' W 082°27'0 0.0
2018-Feb-20 00:30N 27°55' W 082°27'0 0.0
2018-Feb-20 00:00N 27°55' W 082°27'0 0.0
2018-Feb-19 23:30N 27°55' W 082°27'0 0.0
2018-Feb-19 22:59N 27°55' W 082°27'0 0.0
2018-Feb-19 22:30N 27°55' W 082°27'0 0.0
2018-Feb-19 22:00N 27°55' W 082°27'0 0.0
2018-Feb-19 21:30N 27°55' W 082°27'0 0.0
2018-Feb-19 20:59N 27°55' W 082°27'0 0.0
2018-Feb-19 20:30N 27°55' W 082°27'0 0.0
2018-Feb-19 19:59N 27°55' W 082°27'0 0.0
2018-Feb-19 19:30N 27°55' W 082°27'4 7.1
2018-Feb-19 19:00N 27°52' W 082°27'5 9.1
2018-Feb-19 18:29N 27°48' W 082°29'4 9.3
2018-Feb-19 18:01N 27°48' W 082°34'4 7.5
2018-Feb-19 17:31N 27°51' W 082°33'1 1.0
2018-Feb-19 17:00N 27°52' W 082°33'2 3.4
2018-Feb-19 16:24N 27°50' W 082°34'2 4.2
2018-Feb-19 15:50N 27°47' W 082°34'410.8
2018-Feb-19 15:30N 27°47' W 082°30'510.0
2018-Feb-19 15:00N 27°51' W 082°27'4 7.4
2018-Feb-19 14:31N 27°55' W 082°27'0 0.0
2018-Feb-19 14:01N 27°55' W 082°27'0 0.0
2018-Feb-19 13:30N 27°55' W 082°27'0 0.5
2018-Feb-19 13:00N 27°55' W 082°27'0 0.0
2018-Feb-19 12:30N 27°55' W 082°27'0 0.0
2018-Feb-19 12:00N 27°55' W 082°27'0 0.0
2018-Feb-19 11:30N 27°55' W 082°27'0 0.0
2018-Feb-19 11:00N 27°55' W 082°27'0 0.0
2018-Feb-19 10:30N 27°55' W 082°27'0 0.0
2018-Feb-19 10:00N 27°55' W 082°27'0 0.0
2018-Feb-19 09:30N 27°55' W 082°27'0 0.0
2018-Feb-19 08:59N 27°55' W 082°27'0 0.0
2018-Feb-19 08:28N 27°55' W 082°27'0 0.0
2018-Feb-19 08:00N 27°55' W 082°27'0 0.0
2018-Feb-19 07:30N 27°55' W 082°27'0 0.0
2018-Feb-19 07:00N 27°55' W 082°27'0 0.0
2018-Feb-19 06:30N 27°55' W 082°27'0 0.0
2018-Feb-19 06:00N 27°55' W 082°27'0 0.0
2018-Feb-19 05:30N 27°55' W 082°27'0 0.0
2018-Feb-19 05:00N 27°55' W 082°27'0 0.0
2018-Feb-19 04:30N 27°55' W 082°27'0 0.0
2018-Feb-19 04:00N 27°55' W 082°27'0 0.0
2018-Feb-19 03:30N 27°55' W 082°27'0 0.0
2018-Feb-19 03:00N 27°55' W 082°27'0 0.0
2018-Feb-19 02:30N 27°55' W 082°27'0 0.0
2018-Feb-19 02:00N 27°55' W 082°27'0 0.0
2018-Feb-19 01:29N 27°55' W 082°27'0 0.0
2018-Feb-19 01:00N 27°55' W 082°27'0 0.0
2018-Feb-19 00:30N 27°55' W 082°27'0 0.0
2018-Feb-19 00:00N 27°55' W 082°27'0 0.0
2018-Feb-18 23:30N 27°55' W 082°27'0 0.0
2018-Feb-18 23:00N 27°55' W 082°27'0 0.0
2018-Feb-18 22:30N 27°55' W 082°27'0 0.0
2018-Feb-18 22:00N 27°55' W 082°27'0 0.0
2018-Feb-18 21:30N 27°55' W 082°27'0 0.0
2018-Feb-18 21:00N 27°55' W 082°27'0 0.0
2018-Feb-18 20:30N 27°55' W 082°27'0 0.0
2018-Feb-18 19:59N 27°55' W 082°27'0 0.0
2018-Feb-18 19:30N 27°55' W 082°27'0 0.0
2018-Feb-18 19:00N 27°55' W 082°27'0 0.0
2018-Feb-18 18:30N 27°55' W 082°27'0 0.0
2018-Feb-18 18:00N 27°55' W 082°27'0 0.0
2018-Feb-18 17:30N 27°55' W 082°27'0 0.0
2018-Feb-18 17:00N 27°55' W 082°27'0 0.0
2018-Feb-18 16:30N 27°55' W 082°27'0 0.0
2018-Feb-18 16:00N 27°55' W 082°27'0 0.0
2018-Feb-18 15:30N 27°55' W 082°27'0 0.0
2018-Feb-18 15:00N 27°55' W 082°27'0 0.0
2018-Feb-18 14:30N 27°55' W 082°27'1 1.1
2018-Feb-18 14:00N 27°56' W 082°27'1 1.9
2018-Feb-18 13:30N 27°57' W 082°27'0 0.0
2018-Feb-18 13:00N 27°57' W 082°27'0 0.0
2018-Feb-18 12:30N 27°57' W 082°27'1 2.9
2018-Feb-18 12:00N 27°55' W 082°27'0 0.0
2018-Feb-18 11:26N 27°55' W 082°27'0 0.0
2018-Feb-18 11:00N 27°55' W 082°27'0 0.0
2018-Feb-18 10:30N 27°55' W 082°27'0 0.0
2018-Feb-18 10:00N 27°55' W 082°27'0 0.0
2018-Feb-18 09:29N 27°55' W 082°27'0 0.0
2018-Feb-18 08:58N 27°55' W 082°27'0 0.0
2018-Feb-18 08:30N 27°55' W 082°27'0 0.0
2018-Feb-18 08:00N 27°55' W 082°27'0 0.0
2018-Feb-18 07:30N 27°55' W 082°27'0 0.0
2018-Feb-18 07:00N 27°55' W 082°27'0 0.0
2018-Feb-18 06:26N 27°55' W 082°27'0 0.0
2018-Feb-18 06:00N 27°55' W 082°27'0 0.0
2018-Feb-18 05:31N 27°55' W 082°27'0 0.0
2018-Feb-18 05:00N 27°55' W 082°27'0 0.0
2018-Feb-18 04:29N 27°55' W 082°27'0 0.0
2018-Feb-18 04:00N 27°55' W 082°27'0 0.0
2018-Feb-18 03:30N 27°55' W 082°27'0 0.0
2018-Feb-18 03:00N 27°55' W 082°27'0 0.0
2018-Feb-18 02:30N 27°55' W 082°27'0 0.0
2018-Feb-18 02:00N 27°55' W 082°27'0 0.0
2018-Feb-18 01:31N 27°55' W 082°27'0 0.0
2018-Feb-18 01:00N 27°55' W 082°27'0 0.0
2018-Feb-18 00:30N 27°55' W 082°27'0 0.0
2018-Feb-18 00:00N 27°55' W 082°27'0 0.0
2018-Feb-17 23:30N 27°55' W 082°27'0 0.0
2018-Feb-17 23:00N 27°55' W 082°27'0 0.0
2018-Feb-17 22:30N 27°55' W 082°27'0 0.0
2018-Feb-17 22:00N 27°55' W 082°27'0 0.0
2018-Feb-17 21:29N 27°55' W 082°27'0 0.0
2018-Feb-17 21:00N 27°55' W 082°27'0 0.0
2018-Feb-17 20:30N 27°55' W 082°27'0 0.0
2018-Feb-17 20:00N 27°55' W 082°27'1 2.5
2018-Feb-17 19:30N 27°54' W 082°26'0 1.0
2018-Feb-17 19:00N 27°54' W 082°26'0 0.1
2018-Feb-17 18:30N 27°54' W 082°26'1 3.0
2018-Feb-17 18:00N 27°55' W 082°27'0 0.0
2018-Feb-17 17:30N 27°55' W 082°27'0 0.0
2018-Feb-17 17:00N 27°55' W 082°27'0 0.0
2018-Feb-17 16:30N 27°55' W 082°27'0 0.0
2018-Feb-17 16:00N 27°55' W 082°27'0 0.0
2018-Feb-17 15:29N 27°55' W 082°27'0 0.0
2018-Feb-17 15:00N 27°55' W 082°27'0 0.0
2018-Feb-17 14:30N 27°55' W 082°27'0 0.0
2018-Feb-17 14:00N 27°55' W 082°27'0 0.0
2018-Feb-17 13:30N 27°55' W 082°27'0 0.0
2018-Feb-17 12:57N 27°55' W 082°27'0 0.0
2018-Feb-17 12:30N 27°55' W 082°27'0 0.0
2018-Feb-17 12:00N 27°55' W 082°27'0 0.0
2018-Feb-17 11:30N 27°55' W 082°27'0 0.0
2018-Feb-17 11:00N 27°55' W 082°27'0 0.0
2018-Feb-17 10:30N 27°55' W 082°27'0 0.0
2018-Feb-17 10:00N 27°55' W 082°27'0 0.0
2018-Feb-17 09:31N 27°55' W 082°27'0 0.0
2018-Feb-17 08:59N 27°55' W 082°27'0 0.0
2018-Feb-17 08:30N 27°55' W 082°27'0 0.0
2018-Feb-17 08:00N 27°55' W 082°27'0 0.0
2018-Feb-17 07:30N 27°55' W 082°27'0 0.0
2018-Feb-17 07:00N 27°55' W 082°27'0 0.0
2018-Feb-17 06:30N 27°55' W 082°27'0 0.0
2018-Feb-17 06:00N 27°55' W 082°27'0 0.0
2018-Feb-17 05:30N 27°55' W 082°27'0 0.0
2018-Feb-17 05:00N 27°55' W 082°27'0 0.0
2018-Feb-17 04:30N 27°55' W 082°27'0 0.0
2018-Feb-17 04:00N 27°55' W 082°27'0 0.0
2018-Feb-17 03:30N 27°55' W 082°27'0 0.0
2018-Feb-17 03:00N 27°55' W 082°27'0 0.0
2018-Feb-17 02:30N 27°55' W 082°27'0 0.0
2018-Feb-17 02:00N 27°55' W 082°27'0 0.0
2018-Feb-17 01:30N 27°55' W 082°27'0 0.0
2018-Feb-17 01:00N 27°55' W 082°27'0 0.0
2018-Feb-17 00:30N 27°55' W 082°27'0 0.0
2018-Feb-17 00:00N 27°55' W 082°27'2 3.1
2018-Feb-16 23:30N 27°54' W 082°26'0 0.0
2018-Feb-16 23:00N 27°54' W 082°26'0 0.7
2018-Feb-16 22:30N 27°54' W 082°26'1 2.8
2018-Feb-16 22:00N 27°53' W 082°26'2 4.5
2018-Feb-16 21:30N 27°55' W 082°27'0 0.5
2018-Feb-16 21:00N 27°55' W 082°27'0 0.0
2018-Feb-16 20:30N 27°55' W 082°27'0 0.0
2018-Feb-16 20:00N 27°55' W 082°27'0 0.0
2018-Feb-16 19:30N 27°55' W 082°27'0 0.0
2018-Feb-16 19:00N 27°55' W 082°27'0 0.0
2018-Feb-16 18:30N 27°55' W 082°27'0 0.6
2018-Feb-16 18:00N 27°55' W 082°27'0 0.0
2018-Feb-16 17:30N 27°55' W 082°27'1 1.6
2018-Feb-16 17:00N 27°54' W 082°26'1 1.0
2018-Feb-16 16:30N 27°54' W 082°26'2 3.2
2018-Feb-16 16:00N 27°55' W 082°27'0 0.0
2018-Feb-16 15:30N 27°55' W 082°27'0 0.0
2018-Feb-16 15:00N 27°55' W 082°27'0 0.0
2018-Feb-16 14:29N 27°55' W 082°27'0 0.0
2018-Feb-16 14:00N 27°55' W 082°27'0 0.0
2018-Feb-16 13:30N 27°55' W 082°27'0 0.0
2018-Feb-16 13:00N 27°55' W 082°27'0 0.0
2018-Feb-16 12:30N 27°55' W 082°27'0 0.0
2018-Feb-16 12:00N 27°55' W 082°27'0 0.0
2018-Feb-16 11:30N 27°55' W 082°27'0 0.0
2018-Feb-16 11:00N 27°55' W 082°27'0 0.0
2018-Feb-16 10:29N 27°55' W 082°27'0 0.0
2018-Feb-16 10:00N 27°55' W 082°27'0 0.0
2018-Feb-16 09:30N 27°55' W 082°27'0 0.0
2018-Feb-16 09:00N 27°55' W 082°27'0 0.0
2018-Feb-16 08:30N 27°55' W 082°27'0 0.0
2018-Feb-16 08:00N 27°55' W 082°27'0 0.0
2018-Feb-16 07:30N 27°55' W 082°27'0 0.0
2018-Feb-16 07:00N 27°55' W 082°27'0 0.0
2018-Feb-16 06:30N 27°55' W 082°27'0 0.0
2018-Feb-16 06:00N 27°55' W 082°27'0 0.0
2018-Feb-16 05:30N 27°55' W 082°27'0 0.0
2018-Feb-16 05:00N 27°55' W 082°27'0 0.0
2018-Feb-16 04:30N 27°55' W 082°27'0 0.0
2018-Feb-16 04:00N 27°55' W 082°27'0 0.0
2018-Feb-16 03:30N 27°55' W 082°27'0 0.0
2018-Feb-16 03:00N 27°55' W 082°27'0 0.0
2018-Feb-16 02:30N 27°55' W 082°27'0 0.0
2018-Feb-16 02:00N 27°55' W 082°27'0 0.0
2018-Feb-16 01:30N 27°55' W 082°27'0 0.0
2018-Feb-16 01:00N 27°55' W 082°27'0 0.0
2018-Feb-16 00:30N 27°55' W 082°27'0 0.0
2018-Feb-16 00:00N 27°55' W 082°27'0 0.0
2018-Feb-15 23:30N 27°55' W 082°27'0 0.0
2018-Feb-15 23:00N 27°55' W 082°27'0 0.0
2018-Feb-15 22:30N 27°55' W 082°27'0 0.0
2018-Feb-15 22:00N 27°55' W 082°27'0 0.0
2018-Feb-15 21:30N 27°55' W 082°27'0 0.0
2018-Feb-15 21:00N 27°55' W 082°27'0 0.0
2018-Feb-15 20:28N 27°55' W 082°27'0 0.7
2018-Feb-15 20:01N 27°55' W 082°27'1 1.8
2018-Feb-15 19:30N 27°55' W 082°26'1 1.5
2018-Feb-15 19:00N 27°54' W 082°26'2 3.1
2018-Feb-15 18:30N 27°53' W 082°26'4 7.1
2018-Feb-15 18:00N 27°49' W 082°27'2 0.3
2018-Feb-15 10:04N 27°48' W 082°25'0 3.8
2018-Feb-15 10:00N 27°48' W 082°25'1 0.5
2018-Feb-15 08:46N 27°48' W 082°25'2 8.2
2018-Feb-15 08:30N 27°49' W 082°27'4 9.0
2018-Feb-15 08:00N 27°54' W 082°26'2 3.6
2018-Feb-15 07:30N 27°55' W 082°27'0 0.0
2018-Feb-15 07:00N 27°55' W 082°27'0 0.0
2018-Feb-15 06:30N 27°55' W 082°27'0 0.0
2018-Feb-15 05:59N 27°55' W 082°27'0 0.0
2018-Feb-15 05:30N 27°55' W 082°27'0 0.0
2018-Feb-15 05:00N 27°55' W 082°27'0 0.0
2018-Feb-15 04:30N 27°55' W 082°27'0 0.0
2018-Feb-15 04:00N 27°55' W 082°27'0 0.0
2018-Feb-15 03:29N 27°55' W 082°27'0 0.0
2018-Feb-15 03:00N 27°55' W 082°27'1 2.1
2018-Feb-15 02:30N 27°54' W 082°26'1 2.8
2018-Feb-15 02:00N 27°56' W 082°26'0 0.1
2018-Feb-15 01:30N 27°56' W 082°26'1 1.4
2018-Feb-15 01:00N 27°55' W 082°25'0 0.0
2018-Feb-15 00:30N 27°55' W 082°25'1 2.6
2018-Feb-15 00:00N 27°55' W 082°27'0 0.0
2018-Feb-14 23:30N 27°55' W 082°27'0 0.0
2018-Feb-14 23:00N 27°55' W 082°27'0 0.0
2018-Feb-14 22:30N 27°55' W 082°27'0 0.0
2018-Feb-14 22:00N 27°55' W 082°27'0 0.0
2018-Feb-14 21:30N 27°55' W 082°27'0 0.0
2018-Feb-14 21:00N 27°55' W 082°27'0 0.0
2018-Feb-14 20:30N 27°55' W 082°27'0 0.0
2018-Feb-14 20:00N 27°55' W 082°27'0 0.0
2018-Feb-14 19:30N 27°55' W 082°27'0 0.0
2018-Feb-14 19:00N 27°55' W 082°27'0 0.0
2018-Feb-14 18:30N 27°55' W 082°27'0 0.0
2018-Feb-14 18:00N 27°55' W 082°27'0 0.0
2018-Feb-14 17:30N 27°55' W 082°27'0 0.0
2018-Feb-14 17:00N 27°55' W 082°27'0 0.0
2018-Feb-14 16:30N 27°55' W 082°27'1 2.4
2018-Feb-14 16:00N 27°54' W 082°26'611.1
2018-Feb-14 15:29N 27°48' W 082°27'611.0
2018-Feb-14 14:55N 27°48' W 082°34'410.4
2018-Feb-14 14:30N 27°52' W 082°33'0 0.3
2018-Feb-14 14:00N 27°52' W 082°33'1 2.7
2018-Feb-14 13:30N 27°50' W 082°34'4 7.7
2018-Feb-14 12:59N 27°47' W 082°31'510.6
2018-Feb-14 12:30N 27°50' W 082°27'510.3
2018-Feb-14 12:00N 27°55' W 082°27'0 0.5
2018-Feb-14 11:30N 27°55' W 082°27'0 0.0
2018-Feb-14 11:00N 27°55' W 082°27'0 0.0
2018-Feb-14 10:30N 27°55' W 082°27'0 0.0
2018-Feb-14 10:00N 27°55' W 082°27'0 0.0
2018-Feb-14 09:29N 27°55' W 082°27'0 0.0
2018-Feb-14 08:59N 27°55' W 082°27'0 0.0
2018-Feb-14 08:30N 27°55' W 082°27'0 0.0
2018-Feb-14 08:00N 27°55' W 082°27'0 0.0
2018-Feb-14 07:30N 27°55' W 082°27'0 0.0
2018-Feb-14 07:00N 27°55' W 082°27'0 0.0
2018-Feb-14 06:30N 27°55' W 082°27'0 0.0
2018-Feb-14 06:00N 27°55' W 082°27'0 0.0
2018-Feb-14 05:30N 27°55' W 082°27'0 0.0
2018-Feb-14 05:00N 27°55' W 082°27'1 1.9
2018-Feb-14 04:30N 27°54' W 082°26'2 3.3
2018-Feb-14 04:00N 27°53' W 082°27'1 2.0
2018-Feb-14 03:30N 27°54' W 082°26'2 3.1
2018-Feb-14 03:00N 27°55' W 082°27'0 0.0
2018-Feb-14 02:30N 27°55' W 082°27'0 0.0
2018-Feb-14 02:00N 27°55' W 082°27'0 0.0
2018-Feb-14 01:29N 27°55' W 082°27'0 0.0
2018-Feb-14 01:00N 27°55' W 082°27'0 0.0
2018-Feb-14 00:30N 27°55' W 082°27'0 0.0
2018-Feb-14 00:00N 27°55' W 082°27'0 0.0
2018-Feb-13 23:30N 27°55' W 082°27'0 0.0
2018-Feb-13 23:00N 27°55' W 082°27'0 0.0
2018-Feb-13 22:30N 27°55' W 082°27'2 3.5
2018-Feb-13 22:00N 27°57' W 082°27'0 0.0
2018-Feb-13 21:30N 27°57' W 082°27'1 1.5
2018-Feb-13 21:00N 27°56' W 082°27'2 4.7
2018-Feb-13 20:30N 27°54' W 082°26'0 1.0
2018-Feb-13 20:00N 27°55' W 082°26'1 1.8
2018-Feb-13 19:30N 27°55' W 082°27'0 0.0
2018-Feb-13 19:00N 27°55' W 082°27'0 0.0
2018-Feb-13 18:30N 27°55' W 082°27'0 0.0
2018-Feb-13 18:00N 27°55' W 082°27'1 2.9
2018-Feb-13 17:31N 27°57' W 082°27'0 0.7
2018-Feb-13 17:00N 27°57' W 082°27'2 3.5
2018-Feb-13 16:30N 27°55' W 082°27'0 0.0
2018-Feb-13 16:00N 27°55' W 082°27'0 0.0
2018-Feb-13 15:30N 27°55' W 082°27'0 0.0
2018-Feb-13 15:00N 27°55' W 082°27'0 0.0
2018-Feb-13 14:30N 27°55' W 082°27'  
Track history (hours):
 
Tides and Currents Weather Stations Pressure Air Temp Water Temp Dewpoint Dewpoint Depression Visibility Wind Speed Wind Dir Waves Ship Positions

Suwannee River

Owner: Seabulk Towing, Inc., Tampa, FL. More information available from US FCC via Universal Licensing System and Coast Guard Vessel Documentation Center.

Last reported at 2018-Feb-23 14:30 UTC. Time now 2018-Feb-23 14:51 UTC.
Position N 27°55' W 082°27'.

Length 28 m.

Type: Tug. MMSI: 366943490.

Date/timePositionNaut miles runAvg speedWind from/ knotsBaromVisibWave heightAir tempDewpointWater temp
2018-Feb-23 14:30N 27°55' W 082°27'0 0.0
2018-Feb-23 14:00N 27°55' W 082°27'0 0.0
2018-Feb-23 13:30N 27°55' W 082°27'0 0.0
2018-Feb-23 13:00N 27°55' W 082°27'0 0.0
2018-Feb-23 12:29N 27°55' W 082°27'0 0.0
2018-Feb-23 12:00N 27°55' W 082°27'0 0.0
2018-Feb-23 11:30N 27°55' W 082°27'0 0.0
2018-Feb-23 11:00N 27°55' W 082°27'1 3.0
2018-Feb-23 10:30N 27°57' W 082°27'0 0.2
2018-Feb-23 10:00N 27°57' W 082°27'2 3.6
2018-Feb-23 09:30N 27°55' W 082°27'2 3.5
2018-Feb-23 08:59N 27°53' W 082°26'1 2.7
2018-Feb-23 08:30N 27°54' W 082°26'0 0.0
2018-Feb-23 08:00N 27°54' W 082°26'0 0.0
2018-Feb-23 07:30N 27°54' W 082°26'0 0.0
2018-Feb-23 07:00N 27°54' W 082°26'0 0.0
2018-Feb-23 06:30N 27°54' W 082°26'0 0.0
2018-Feb-23 06:00N 27°54' W 082°26'0 0.0
2018-Feb-23 05:30N 27°54' W 082°26'0 0.0
2018-Feb-23 05:00N 27°54' W 082°26'4 7.1
2018-Feb-23 04:30N 27°51' W 082°27'3 1.6
2018-Feb-23 02:44N 27°51' W 082°24'2 6.8
2018-Feb-23 02:30N 27°51' W 082°25'2 4.9
2018-Feb-23 02:00N 27°49' W 082°27'2 3.8
2018-Feb-23 01:25N 27°48' W 082°24'0 0.5
2018-Feb-23 00:57N 27°48' W 082°25'3 7.5
2018-Feb-23 00:30N 27°51' W 082°27'4 8.0
2018-Feb-23 00:00N 27°55' W 082°27'0 0.0
2018-Feb-22 23:30N 27°55' W 082°27'0 0.0
2018-Feb-22 23:00N 27°55' W 082°27'0 0.0
2018-Feb-22 22:30N 27°55' W 082°27'0 0.0
2018-Feb-22 22:00N 27°55' W 082°27'0 0.0
2018-Feb-22 21:30N 27°55' W 082°27'0 0.0
2018-Feb-22 21:00N 27°55' W 082°27'0 0.0
2018-Feb-22 20:30N 27°55' W 082°27'0 0.0
2018-Feb-22 20:00N 27°55' W 082°27'0 0.0
2018-Feb-22 19:30N 27°55' W 082°27'0 0.0
2018-Feb-22 19:00N 27°55' W 082°27'0 0.0
2018-Feb-22 18:30N 27°55' W 082°27'0 0.0
2018-Feb-22 18:00N 27°55' W 082°27'0 0.0
2018-Feb-22 17:30N 27°55' W 082°27'0 0.0
2018-Feb-22 17:00N 27°55' W 082°27'0 0.0
2018-Feb-22 16:30N 27°55' W 082°27'0 0.0
2018-Feb-22 16:00N 27°55' W 082°27'0 0.0
2018-Feb-22 15:30N 27°55' W 082°27'0 0.0
2018-Feb-22 15:00N 27°55' W 082°27'0 0.0
2018-Feb-22 14:30N 27°55' W 082°27'0 0.0
2018-Feb-22 14:00N 27°55' W 082°27'0 0.0
2018-Feb-22 13:30N 27°55' W 082°27'0 0.0
2018-Feb-22 13:00N 27°55' W 082°27'0 0.0
2018-Feb-22 12:30N 27°55' W 082°27'1 1.2
2018-Feb-22 12:00N 27°56' W 082°27'1 1.2
2018-Feb-22 11:30N 27°55' W 082°27'0 0.0
2018-Feb-22 11:00N 27°55' W 082°27'0 0.0
2018-Feb-22 10:30N 27°55' W 082°27'0 0.0
2018-Feb-22 10:00N 27°55' W 082°27'0 0.0
2018-Feb-22 09:30N 27°55' W 082°27'0 0.0
2018-Feb-22 09:00N 27°55' W 082°27'0 0.0
2018-Feb-22 08:30N 27°55' W 082°27'0 0.0
2018-Feb-22 08:00N 27°55' W 082°27'0 0.0
2018-Feb-22 07:30N 27°55' W 082°27'0 0.0
2018-Feb-22 07:00N 27°55' W 082°27'0 0.0
2018-Feb-22 06:29N 27°55' W 082°27'0 0.0
2018-Feb-22 05:56N 27°55' W 082°27'0 0.0
2018-Feb-22 05:30N 27°55' W 082°27'0 0.0
2018-Feb-22 04:59N 27°55' W 082°27'0 0.0
2018-Feb-22 04:30N 27°55' W 082°27'0 0.0
2018-Feb-22 04:00N 27°55' W 082°27'0 0.0
2018-Feb-22 03:30N 27°55' W 082°27'0 0.0
2018-Feb-22 03:00N 27°55' W 082°27'0 0.0
2018-Feb-22 02:30N 27°55' W 082°27'0 0.0
2018-Feb-22 02:00N 27°55' W 082°27'0 0.0
2018-Feb-22 01:30N 27°55' W 082°27'0 0.0
2018-Feb-22 01:00N 27°55' W 082°27'0 0.0
2018-Feb-22 00:27N 27°55' W 082°27'0 0.0
2018-Feb-22 00:00N 27°55' W 082°27'0 0.0
2018-Feb-21 23:30N 27°55' W 082°27'0 0.0
2018-Feb-21 23:00N 27°55' W 082°27'0 0.0
2018-Feb-21 22:30N 27°55' W 082°27'0 0.0
2018-Feb-21 22:00N 27°55' W 082°27'0 0.0
2018-Feb-21 21:30N 27°55' W 082°27'0 0.0
2018-Feb-21 20:59N 27°55' W 082°27'0 0.0
2018-Feb-21 20:29N 27°55' W 082°27'0 0.0
2018-Feb-21 20:00N 27°55' W 082°27'0 0.0
2018-Feb-21 19:30N 27°55' W 082°27'0 0.0
2018-Feb-21 18:59N 27°55' W 082°27'0 0.0
2018-Feb-21 18:30N 27°55' W 082°27'0 0.3
2018-Feb-21 18:00N 27°56' W 082°27'0 0.9
2018-Feb-21 17:30N 27°56' W 082°27'1 1.1
2018-Feb-21 17:00N 27°56' W 082°27'2 3.5
2018-Feb-21 16:30N 27°55' W 082°27'1 1.3
2018-Feb-21 16:00N 27°55' W 082°27'0 0.0
2018-Feb-21 15:30N 27°55' W 082°27'0 0.0
2018-Feb-21 15:00N 27°55' W 082°27'0 0.0
2018-Feb-21 14:30N 27°55' W 082°27'0 0.0
2018-Feb-21 14:00N 27°55' W 082°27'0 0.0
2018-Feb-21 13:29N 27°55' W 082°27'0 0.0
2018-Feb-21 12:58N 27°55' W 082°27'0 0.0
2018-Feb-21 12:30N 27°55' W 082°27'0 0.0
2018-Feb-21 12:00N 27°55' W 082°27'0 0.0
2018-Feb-21 11:30N 27°55' W 082°27'0 0.0
2018-Feb-21 11:00N 27°55' W 082°27'0 0.0
2018-Feb-21 10:30N 27°55' W 082°27'0 0.0
2018-Feb-21 10:00N 27°55' W 082°27'0 0.0
2018-Feb-21 09:30N 27°55' W 082°27'0 0.0
2018-Feb-21 09:00N 27°55' W 082°27'0 0.0
2018-Feb-21 08:30N 27°55' W 082°27'0 0.0
2018-Feb-21 08:00N 27°55' W 082°27'0 0.0
2018-Feb-21 07:30N 27°55' W 082°27'0 0.0
2018-Feb-21 06:58N 27°55' W 082°27'0 0.0
2018-Feb-21 06:30N 27°55' W 082°27'0 0.0
2018-Feb-21 06:00N 27°55' W 082°27'0 0.0
2018-Feb-21 05:30N 27°55' W 082°27'0 0.0
2018-Feb-21 05:00N 27°55' W 082°27'0 0.0
2018-Feb-21 04:30N 27°55' W 082°27'0 0.0
2018-Feb-21 04:00N 27°55' W 082°27'0 0.0
2018-Feb-21 03:30N 27°55' W 082°27'0 0.0
2018-Feb-21 03:00N 27°55' W 082°27'1 2.3
2018-Feb-21 02:30N 27°57' W 082°27'0 0.7
2018-Feb-21 02:00N 27°57' W 082°27'0 0.3
2018-Feb-21 01:30N 27°57' W 082°27'1 2.6
2018-Feb-21 01:00N 27°55' W 082°27'0 0.0
2018-Feb-21 00:30N 27°55' W 082°27'0 0.0
2018-Feb-21 00:00N 27°55' W 082°27'0 0.0
2018-Feb-20 23:30N 27°55' W 082°27'0 0.0
2018-Feb-20 23:00N 27°55' W 082°27'0 0.0
2018-Feb-20 22:30N 27°55' W 082°27'0 0.0
2018-Feb-20 22:00N 27°55' W 082°27'4 8.6
2018-Feb-20 21:30N 27°51' W 082°27'5 9.7
2018-Feb-20 21:00N 27°47' W 082°30'4 8.0
2018-Feb-20 20:30N 27°49' W 082°34'3 5.2
2018-Feb-20 20:00N 27°52' W 082°33'0 0.0
2018-Feb-20 19:30N 27°52' W 082°33'0 0.0
2018-Feb-20 19:00N 27°52' W 082°33'0 0.0
2018-Feb-20 18:28N 27°52' W 082°33'0 0.0
2018-Feb-20 18:00N 27°52' W 082°33'0 0.0
2018-Feb-20 17:30N 27°52' W 082°33'0 0.0
2018-Feb-20 17:00N 27°52' W 082°33'0 0.0
2018-Feb-20 16:30N 27°52' W 082°33'0 0.0
2018-Feb-20 16:00N 27°52' W 082°33'0 0.0
2018-Feb-20 15:27N 27°52' W 082°33'0 0.0
2018-Feb-20 15:00N 27°52' W 082°33'0 0.0
2018-Feb-20 14:28N 27°52' W 082°33'0 0.0
2018-Feb-20 14:00N 27°52' W 082°33'0 0.0
2018-Feb-20 13:30N 27°52' W 082°33'0 0.0
2018-Feb-20 13:00N 27°52' W 082°33'0 0.0
2018-Feb-20 12:30N 27°52' W 082°33'0 0.0
2018-Feb-20 12:00N 27°52' W 082°33'0 0.0
2018-Feb-20 11:30N 27°52' W 082°33'0 0.5
2018-Feb-20 11:00N 27°52' W 082°33'0 0.0
2018-Feb-20 10:30N 27°52' W 082°33'4 5.7
2018-Feb-20 09:45N 27°47' W 082°34'311.2
2018-Feb-20 09:30N 27°47' W 082°31'510.1
2018-Feb-20 09:00N 27°50' W 082°27'5 9.8
2018-Feb-20 08:30N 27°55' W 082°27'0 0.0
2018-Feb-20 08:00N 27°55' W 082°27'0 0.0
2018-Feb-20 07:30N 27°55' W 082°27'0 0.0
2018-Feb-20 07:00N 27°55' W 082°27'0 0.0
2018-Feb-20 06:30N 27°55' W 082°27'0 0.0
2018-Feb-20 06:00N 27°55' W 082°27'0 0.0
2018-Feb-20 05:30N 27°55' W 082°27'0 0.0
2018-Feb-20 05:00N 27°55' W 082°27'0 0.0
2018-Feb-20 04:30N 27°55' W 082°27'0 0.0
2018-Feb-20 04:00N 27°55' W 082°27'0 0.0
2018-Feb-20 03:30N 27°55' W 082°27'0 0.0
2018-Feb-20 03:00N 27°55' W 082°27'0 0.0
2018-Feb-20 02:30N 27°55' W 082°27'0 0.0
2018-Feb-20 02:00N 27°55' W 082°27'0 0.0
2018-Feb-20 01:30N 27°55' W 082°27'0 0.0
2018-Feb-20 01:00N 27°55' W 082°27'0 0.0
2018-Feb-20 00:30N 27°55' W 082°27'0 0.0
2018-Feb-20 00:00N 27°55' W 082°27'0 0.0
2018-Feb-19 23:30N 27°55' W 082°27'0 0.0
2018-Feb-19 22:59N 27°55' W 082°27'0 0.0
2018-Feb-19 22:30N 27°55' W 082°27'0 0.0
2018-Feb-19 22:00N 27°55' W 082°27'0 0.0
2018-Feb-19 21:30N 27°55' W 082°27'0 0.0
2018-Feb-19 20:59N 27°55' W 082°27'0 0.0
2018-Feb-19 20:30N 27°55' W 082°27'0 0.0
2018-Feb-19 19:59N 27°55' W 082°27'0 0.0
2018-Feb-19 19:30N 27°55' W 082°27'4 7.1
2018-Feb-19 19:00N 27°52' W 082°27'5 9.1
2018-Feb-19 18:29N 27°48' W 082°29'4 9.3
2018-Feb-19 18:01N 27°48' W 082°34'4 7.5
2018-Feb-19 17:31N 27°51' W 082°33'1 1.0
2018-Feb-19 17:00N 27°52' W 082°33'2 3.4
2018-Feb-19 16:24N 27°50' W 082°34'2 4.2
2018-Feb-19 15:50N 27°47' W 082°34'410.8
2018-Feb-19 15:30N 27°47' W 082°30'510.0
2018-Feb-19 15:00N 27°51' W 082°27'4 7.4
2018-Feb-19 14:31N 27°55' W 082°27'0 0.0
2018-Feb-19 14:01N 27°55' W 082°27'0 0.0
2018-Feb-19 13:30N 27°55' W 082°27'0 0.5
2018-Feb-19 13:00N 27°55' W 082°27'0 0.0
2018-Feb-19 12:30N 27°55' W 082°27'0 0.0
2018-Feb-19 12:00N 27°55' W 082°27'0 0.0
2018-Feb-19 11:30N 27°55' W 082°27'0 0.0
2018-Feb-19 11:00N 27°55' W 082°27'0 0.0
2018-Feb-19 10:30N 27°55' W 082°27'0 0.0
2018-Feb-19 10:00N 27°55' W 082°27'0 0.0
2018-Feb-19 09:30N 27°55' W 082°27'0 0.0
2018-Feb-19 08:59N 27°55' W 082°27'0 0.0
2018-Feb-19 08:28N 27°55' W 082°27'0 0.0
2018-Feb-19 08:00N 27°55' W 082°27'0 0.0
2018-Feb-19 07:30N 27°55' W 082°27'0 0.0
2018-Feb-19 07:00N 27°55' W 082°27'0 0.0
2018-Feb-19 06:30N 27°55' W 082°27'0 0.0
2018-Feb-19 06:00N 27°55' W 082°27'0 0.0
2018-Feb-19 05:30N 27°55' W 082°27'0 0.0
2018-Feb-19 05:00N 27°55' W 082°27'0 0.0
2018-Feb-19 04:30N 27°55' W 082°27'0 0.0
2018-Feb-19 04:00N 27°55' W 082°27'0 0.0
2018-Feb-19 03:30N 27°55' W 082°27'0 0.0
2018-Feb-19 03:00N 27°55' W 082°27'0 0.0
2018-Feb-19 02:30N 27°55' W 082°27'0 0.0
2018-Feb-19 02:00N 27°55' W 082°27'0 0.0
2018-Feb-19 01:29N 27°55' W 082°27'0 0.0
2018-Feb-19 01:00N 27°55' W 082°27'0 0.0
2018-Feb-19 00:30N 27°55' W 082°27'0 0.0
2018-Feb-19 00:00N 27°55' W 082°27'0 0.0
2018-Feb-18 23:30N 27°55' W 082°27'0 0.0
2018-Feb-18 23:00N 27°55' W 082°27'0 0.0
2018-Feb-18 22:30N 27°55' W 082°27'0 0.0
2018-Feb-18 22:00N 27°55' W 082°27'0 0.0
2018-Feb-18 21:30N 27°55' W 082°27'0 0.0
2018-Feb-18 21:00N 27°55' W 082°27'0 0.0
2018-Feb-18 20:30N 27°55' W 082°27'0 0.0
2018-Feb-18 19:59N 27°55' W 082°27'0 0.0
2018-Feb-18 19:30N 27°55' W 082°27'0 0.0
2018-Feb-18 19:00N 27°55' W 082°27'0 0.0
2018-Feb-18 18:30N 27°55' W 082°27'0 0.0
2018-Feb-18 18:00N 27°55' W 082°27'0 0.0
2018-Feb-18 17:30N 27°55' W 082°27'0 0.0
2018-Feb-18 17:00N 27°55' W 082°27'0 0.0
2018-Feb-18 16:30N 27°55' W 082°27'0 0.0
2018-Feb-18 16:00N 27°55' W 082°27'0 0.0
2018-Feb-18 15:30N 27°55' W 082°27'0 0.0
2018-Feb-18 15:00N 27°55' W 082°27'0 0.0
2018-Feb-18 14:30N 27°55' W 082°27'1 1.1
2018-Feb-18 14:00N 27°56' W 082°27'1 1.9
2018-Feb-18 13:30N 27°57' W 082°27'0 0.0
2018-Feb-18 13:00N 27°57' W 082°27'0 0.0
2018-Feb-18 12:30N 27°57' W 082°27'1 2.9
2018-Feb-18 12:00N 27°55' W 082°27'0 0.0
2018-Feb-18 11:26N 27°55' W 082°27'0 0.0
2018-Feb-18 11:00N 27°55' W 082°27'0 0.0
2018-Feb-18 10:30N 27°55' W 082°27'0 0.0
2018-Feb-18 10:00N 27°55' W 082°27'0 0.0
2018-Feb-18 09:29N 27°55' W 082°27'0 0.0
2018-Feb-18 08:58N 27°55' W 082°27'0 0.0
2018-Feb-18 08:30N 27°55' W 082°27'0 0.0
2018-Feb-18 08:00N 27°55' W 082°27'0 0.0
2018-Feb-18 07:30N 27°55' W 082°27'0 0.0
2018-Feb-18 07:00N 27°55' W 082°27'0 0.0
2018-Feb-18 06:26N 27°55' W 082°27'0 0.0
2018-Feb-18 06:00N 27°55' W 082°27'0 0.0
2018-Feb-18 05:31N 27°55' W 082°27'0 0.0
2018-Feb-18 05:00N 27°55' W 082°27'0 0.0
2018-Feb-18 04:29N 27°55' W 082°27'0 0.0
2018-Feb-18 04:00N 27°55' W 082°27'0 0.0
2018-Feb-18 03:30N 27°55' W 082°27'0 0.0
2018-Feb-18 03:00N 27°55' W 082°27'0 0.0
2018-Feb-18 02:30N 27°55' W 082°27'0 0.0
2018-Feb-18 02:00N 27°55' W 082°27'0 0.0
2018-Feb-18 01:31N 27°55' W 082°27'0 0.0
2018-Feb-18 01:00N 27°55' W 082°27'0 0.0
2018-Feb-18 00:30N 27°55' W 082°27'0 0.0
2018-Feb-18 00:00N 27°55' W 082°27'0 0.0
2018-Feb-17 23:30N 27°55' W 082°27'0 0.0
2018-Feb-17 23:00N 27°55' W 082°27'0 0.0
2018-Feb-17 22:30N 27°55' W 082°27'0 0.0
2018-Feb-17 22:00N 27°55' W 082°27'0 0.0
2018-Feb-17 21:29N 27°55' W 082°27'0 0.0
2018-Feb-17 21:00N 27°55' W 082°27'0 0.0
2018-Feb-17 20:30N 27°55' W 082°27'0 0.0
2018-Feb-17 20:00N 27°55' W 082°27'1 2.5
2018-Feb-17 19:30N 27°54' W 082°26'0 1.0
2018-Feb-17 19:00N 27°54' W 082°26'0 0.1
2018-Feb-17 18:30N 27°54' W 082°26'1 3.0
2018-Feb-17 18:00N 27°55' W 082°27'0 0.0
2018-Feb-17 17:30N 27°55' W 082°27'0 0.0
2018-Feb-17 17:00N 27°55' W 082°27'0 0.0
2018-Feb-17 16:30N 27°55' W 082°27'0 0.0
2018-Feb-17 16:00N 27°55' W 082°27'0 0.0
2018-Feb-17 15:29N 27°55' W 082°27'0 0.0
2018-Feb-17 15:00N 27°55' W 082°27'0 0.0
2018-Feb-17 14:30N 27°55' W 082°27'0 0.0
2018-Feb-17 14:00N 27°55' W 082°27'0 0.0
2018-Feb-17 13:30N 27°55' W 082°27'0 0.0
2018-Feb-17 12:57N 27°55' W 082°27'0 0.0
2018-Feb-17 12:30N 27°55' W 082°27'0 0.0
2018-Feb-17 12:00N 27°55' W 082°27'0 0.0
2018-Feb-17 11:30N 27°55' W 082°27'0 0.0
2018-Feb-17 11:00N 27°55' W 082°27'0 0.0
2018-Feb-17 10:30N 27°55' W 082°27'0 0.0
2018-Feb-17 10:00N 27°55' W 082°27'0 0.0
2018-Feb-17 09:31N 27°55' W 082°27'0 0.0
2018-Feb-17 08:59N 27°55' W 082°27'0 0.0
2018-Feb-17 08:30N 27°55' W 082°27'0 0.0
2018-Feb-17 08:00N 27°55' W 082°27'0 0.0
2018-Feb-17 07:30N 27°55' W 082°27'0 0.0
2018-Feb-17 07:00N 27°55' W 082°27'0 0.0
2018-Feb-17 06:30N 27°55' W 082°27'0 0.0
2018-Feb-17 06:00N 27°55' W 082°27'0 0.0
2018-Feb-17 05:30N 27°55' W 082°27'0 0.0
2018-Feb-17 05:00N 27°55' W 082°27'0 0.0
2018-Feb-17 04:30N 27°55' W 082°27'0 0.0
2018-Feb-17 04:00N 27°55' W 082°27'0 0.0
2018-Feb-17 03:30N 27°55' W 082°27'0 0.0
2018-Feb-17 03:00N 27°55' W 082°27'0 0.0
2018-Feb-17 02:30N 27°55' W 082°27'0 0.0
2018-Feb-17 02:00N 27°55' W 082°27'0 0.0
2018-Feb-17 01:30N 27°55' W 082°27'0 0.0
2018-Feb-17 01:00N 27°55' W 082°27'0 0.0
2018-Feb-17 00:30N 27°55' W 082°27'0 0.0
2018-Feb-17 00:00N 27°55' W 082°27'2 3.1
2018-Feb-16 23:30N 27°54' W 082°26'0 0.0
2018-Feb-16 23:00N 27°54' W 082°26'0 0.7
2018-Feb-16 22:30N 27°54' W 082°26'1 2.8
2018-Feb-16 22:00N 27°53' W 082°26'2 4.5
2018-Feb-16 21:30N 27°55' W 082°27'0 0.5
2018-Feb-16 21:00N 27°55' W 082°27'0 0.0
2018-Feb-16 20:30N 27°55' W 082°27'0 0.0
2018-Feb-16 20:00N 27°55' W 082°27'0 0.0
2018-Feb-16 19:30N 27°55' W 082°27'0 0.0
2018-Feb-16 19:00N 27°55' W 082°27'0 0.0
2018-Feb-16 18:30N 27°55' W 082°27'0 0.6
2018-Feb-16 18:00N 27°55' W 082°27'0 0.0
2018-Feb-16 17:30N 27°55' W 082°27'1 1.6
2018-Feb-16 17:00N 27°54' W 082°26'1 1.0
2018-Feb-16 16:30N 27°54' W 082°26'2 3.2
2018-Feb-16 16:00N 27°55' W 082°27'0 0.0
2018-Feb-16 15:30N 27°55' W 082°27'0 0.0
2018-Feb-16 15:00N 27°55' W 082°27'0 0.0
2018-Feb-16 14:29N 27°55' W 082°27'0 0.0
2018-Feb-16 14:00N 27°55' W 082°27'0 0.0
2018-Feb-16 13:30N 27°55' W 082°27'0 0.0
2018-Feb-16 13:00N 27°55' W 082°27'0 0.0
2018-Feb-16 12:30N 27°55' W 082°27'0 0.0
2018-Feb-16 12:00N 27°55' W 082°27'0 0.0
2018-Feb-16 11:30N 27°55' W 082°27'0 0.0
2018-Feb-16 11:00N 27°55' W 082°27'0 0.0
2018-Feb-16 10:29N 27°55' W 082°27'0 0.0
2018-Feb-16 10:00N 27°55' W 082°27'0 0.0
2018-Feb-16 09:30N 27°55' W 082°27'0 0.0
2018-Feb-16 09:00N 27°55' W 082°27'0 0.0
2018-Feb-16 08:30N 27°55' W 082°27'0 0.0
2018-Feb-16 08:00N 27°55' W 082°27'0 0.0
2018-Feb-16 07:30N 27°55' W 082°27'0 0.0
2018-Feb-16 07:00N 27°55' W 082°27'0 0.0
2018-Feb-16 06:30N 27°55' W 082°27'0 0.0
2018-Feb-16 06:00N 27°55' W 082°27'0 0.0
2018-Feb-16 05:30N 27°55' W 082°27'0 0.0
2018-Feb-16 05:00N 27°55' W 082°27'0 0.0
2018-Feb-16 04:30N 27°55' W 082°27'0 0.0
2018-Feb-16 04:00N 27°55' W 082°27'0 0.0
2018-Feb-16 03:30N 27°55' W 082°27'0 0.0
2018-Feb-16 03:00N 27°55' W 082°27'0 0.0
2018-Feb-16 02:30N 27°55' W 082°27'0 0.0
2018-Feb-16 02:00N 27°55' W 082°27'0 0.0
2018-Feb-16 01:30N 27°55' W 082°27'0 0.0
2018-Feb-16 01:00N 27°55' W 082°27'0 0.0
2018-Feb-16 00:30N 27°55' W 082°27'0 0.0
2018-Feb-16 00:00N 27°55' W 082°27'0 0.0
2018-Feb-15 23:30N 27°55' W 082°27'0 0.0
2018-Feb-15 23:00N 27°55' W 082°27'0 0.0
2018-Feb-15 22:30N 27°55' W 082°27'0 0.0
2018-Feb-15 22:00N 27°55' W 082°27'0 0.0
2018-Feb-15 21:30N 27°55' W 082°27'0 0.0
2018-Feb-15 21:00N 27°55' W 082°27'0 0.0
2018-Feb-15 20:28N 27°55' W 082°27'0 0.7
2018-Feb-15 20:01N 27°55' W 082°27'1 1.8
2018-Feb-15 19:30N 27°55' W 082°26'1 1.5
2018-Feb-15 19:00N 27°54' W 082°26'2 3.1
2018-Feb-15 18:30N 27°53' W 082°26'4 7.1
2018-Feb-15 18:00N 27°49' W 082°27'2 0.3
2018-Feb-15 10:04N 27°48' W 082°25'0 3.8
2018-Feb-15 10:00N 27°48' W 082°25'1 0.5
2018-Feb-15 08:46N 27°48' W 082°25'2 8.2
2018-Feb-15 08:30N 27°49' W 082°27'4 9.0
2018-Feb-15 08:00N 27°54' W 082°26'2 3.6
2018-Feb-15 07:30N 27°55' W 082°27'0 0.0
2018-Feb-15 07:00N 27°55' W 082°27'0 0.0
2018-Feb-15 06:30N 27°55' W 082°27'0 0.0
2018-Feb-15 05:59N 27°55' W 082°27'0 0.0
2018-Feb-15 05:30N 27°55' W 082°27'0 0.0
2018-Feb-15 05:00N 27°55' W 082°27'0 0.0
2018-Feb-15 04:30N 27°55' W 082°27'0 0.0
2018-Feb-15 04:00N 27°55' W 082°27'0 0.0
2018-Feb-15 03:29N 27°55' W 082°27'0 0.0
2018-Feb-15 03:00N 27°55' W 082°27'1 2.1
2018-Feb-15 02:30N 27°54' W 082°26'1 2.8
2018-Feb-15 02:00N 27°56' W 082°26'0 0.1
2018-Feb-15 01:30N 27°56' W 082°26'1 1.4
2018-Feb-15 01:00N 27°55' W 082°25'0 0.0
2018-Feb-15 00:30N 27°55' W 082°25'1 2.6
2018-Feb-15 00:00N 27°55' W 082°27'0 0.0
2018-Feb-14 23:30N 27°55' W 082°27'0 0.0
2018-Feb-14 23:00N 27°55' W 082°27'0 0.0
2018-Feb-14 22:30N 27°55' W 082°27'0 0.0
2018-Feb-14 22:00N 27°55' W 082°27'0 0.0
2018-Feb-14 21:30N 27°55' W 082°27'0 0.0
2018-Feb-14 21:00N 27°55' W 082°27'0 0.0
2018-Feb-14 20:30N 27°55' W 082°27'0 0.0
2018-Feb-14 20:00N 27°55' W 082°27'0 0.0
2018-Feb-14 19:30N 27°55' W 082°27'0 0.0
2018-Feb-14 19:00N 27°55' W 082°27'0 0.0
2018-Feb-14 18:30N 27°55' W 082°27'0 0.0
2018-Feb-14 18:00N 27°55' W 082°27'0 0.0
2018-Feb-14 17:30N 27°55' W 082°27'0 0.0
2018-Feb-14 17:00N 27°55' W 082°27'0 0.0
2018-Feb-14 16:30N 27°55' W 082°27'1 2.4
2018-Feb-14 16:00N 27°54' W 082°26'611.1
2018-Feb-14 15:29N 27°48' W 082°27'611.0
2018-Feb-14 14:55N 27°48' W 082°34'410.4
2018-Feb-14 14:30N 27°52' W 082°33'0 0.3
2018-Feb-14 14:00N 27°52' W 082°33'1 2.7
2018-Feb-14 13:30N 27°50' W 082°34'4 7.7
2018-Feb-14 12:59N 27°47' W 082°31'510.6
2018-Feb-14 12:30N 27°50' W 082°27'510.3
2018-Feb-14 12:00N 27°55' W 082°27'0 0.5
2018-Feb-14 11:30N 27°55' W 082°27'0 0.0
2018-Feb-14 11:00N 27°55' W 082°27'0 0.0
2018-Feb-14 10:30N 27°55' W 082°27'0 0.0
2018-Feb-14 10:00N 27°55' W 082°27'0 0.0
2018-Feb-14 09:29N 27°55' W 082°27'0 0.0
2018-Feb-14 08:59N 27°55' W 082°27'0 0.0
2018-Feb-14 08:30N 27°55' W 082°27'0 0.0
2018-Feb-14 08:00N 27°55' W 082°27'0 0.0
2018-Feb-14 07:30N 27°55' W 082°27'0 0.0
2018-Feb-14 07:00N 27°55' W 082°27'0 0.0
2018-Feb-14 06:30N 27°55' W 082°27'0 0.0
2018-Feb-14 06:00N 27°55' W 082°27'0 0.0
2018-Feb-14 05:30N 27°55' W 082°27'0 0.0
2018-Feb-14 05:00N 27°55' W 082°27'1 1.9
2018-Feb-14 04:30N 27°54' W 082°26'2 3.3
2018-Feb-14 04:00N 27°53' W 082°27'1 2.0
2018-Feb-14 03:30N 27°54' W 082°26'2 3.1
2018-Feb-14 03:00N 27°55' W 082°27'0 0.0
2018-Feb-14 02:30N 27°55' W 082°27'0 0.0
2018-Feb-14 02:00N 27°55' W 082°27'0 0.0
2018-Feb-14 01:29N 27°55' W 082°27'0 0.0
2018-Feb-14 01:00N 27°55' W 082°27'0 0.0
2018-Feb-14 00:30N 27°55' W 082°27'0 0.0
2018-Feb-14 00:00N 27°55' W 082°27'0 0.0
2018-Feb-13 23:30N 27°55' W 082°27'0 0.0
2018-Feb-13 23:00N 27°55' W 082°27'0 0.0
2018-Feb-13 22:30N 27°55' W 082°27'2 3.5
2018-Feb-13 22:00N 27°57' W 082°27'0 0.0
2018-Feb-13 21:30N 27°57' W 082°27'1 1.5
2018-Feb-13 21:00N 27°56' W 082°27'2 4.7
2018-Feb-13 20:30N 27°54' W 082°26'0 1.0
2018-Feb-13 20:00N 27°55' W 082°26'1 1.8
2018-Feb-13 19:30N 27°55' W 082°27'0 0.0
2018-Feb-13 19:00N 27°55' W 082°27'0 0.0
2018-Feb-13 18:30N 27°55' W 082°27'0 0.0
2018-Feb-13 18:00N 27°55' W 082°27'1 2.9
2018-Feb-13 17:31N 27°57' W 082°27'0 0.7
2018-Feb-13 17:00N 27°57' W 082°27'2 3.5
2018-Feb-13 16:30N 27°55' W 082°27'0 0.0
2018-Feb-13 16:00N 27°55' W 082°27'0 0.0
2018-Feb-13 15:30N 27°55' W 082°27'0 0.0
2018-Feb-13 15:00N 27°55' W 082°27'0 0.0
2018-Feb-13 14:30N 27°55' W 082°27'  

Dump ship's entire track history